sensor_id;sensor_type;location;lat;lon;timestamp;pressure;altitude;pressure_sealevel;temperature;humidity
32083;BME280;18597;48.328;7.932;2023-04-07T00:02:10;99538.84;;;7.27;100.00
32083;BME280;18597;48.328;7.932;2023-04-07T00:04:35;99532.22;;;7.33;100.00
32083;BME280;18597;48.328;7.932;2023-04-07T00:07:01;99535.09;;;7.30;100.00
32083;BME280;18597;48.328;7.932;2023-04-07T00:09:27;99536.38;;;7.24;100.00
32083;BME280;18597;48.328;7.932;2023-04-07T00:11:53;99527.56;;;7.23;100.00
32083;BME280;18597;48.328;7.932;2023-04-07T00:14:19;99525.19;;;7.32;100.00
32083;BME280;18597;48.328;7.932;2023-04-07T00:16:45;99531.31;;;7.21;100.00
32083;BME280;18597;48.328;7.932;2023-04-07T00:19:36;99528.81;;;7.31;100.00
32083;BME280;18597;48.328;7.932;2023-04-07T00:22:02;99522.66;;;7.30;100.00
32083;BME280;18597;48.328;7.932;2023-04-07T00:24:28;99525.28;;;7.19;100.00
32083;BME280;18597;48.328;7.932;2023-04-07T00:26:53;99518.91;;;7.09;100.00
32083;BME280;18597;48.328;7.932;2023-04-07T00:29:46;99514.38;;;7.11;100.00
32083;BME280;18597;48.328;7.932;2023-04-07T00:32:11;99513.59;;;7.09;100.00
32083;BME280;18597;48.328;7.932;2023-04-07T00:35:03;99502.00;;;7.10;100.00
32083;BME280;18597;48.328;7.932;2023-04-07T00:37:30;99506.41;;;7.11;100.00
32083;BME280;18597;48.328;7.932;2023-04-07T00:39:56;99505.59;;;7.21;100.00
32083;BME280;18597;48.328;7.932;2023-04-07T00:42:23;99502.78;;;7.12;100.00
32083;BME280;18597;48.328;7.932;2023-04-07T00:44:52;99494.34;;;7.18;100.00
32083;BME280;18597;48.328;7.932;2023-04-07T00:47:19;99497.34;;;7.13;100.00
32083;BME280;18597;48.328;7.932;2023-04-07T00:49:45;99481.72;;;7.09;100.00
32083;BME280;18597;48.328;7.932;2023-04-07T00:52:11;99489.13;;;6.92;100.00
32083;BME280;18597;48.328;7.932;2023-04-07T00:54:38;99484.94;;;6.77;100.00
32083;BME280;18597;48.328;7.932;2023-04-07T00:57:06;99478.88;;;6.75;100.00
32083;BME280;18597;48.328;7.932;2023-04-07T00:59:32;99481.25;;;6.54;100.00
32083;BME280;18597;48.328;7.932;2023-04-07T01:02:34;99484.03;;;6.40;100.00
32083;BME280;18597;48.328;7.932;2023-04-07T01:05:17;99476.75;;;6.31;100.00
32083;BME280;18597;48.328;7.932;2023-04-07T01:09:02;99477.16;;;6.37;100.00
32083;BME280;18597;48.328;7.932;2023-04-07T01:11:58;99469.09;;;6.26;100.00
32083;BME280;18597;48.328;7.932;2023-04-07T01:14:39;99471.84;;;6.25;100.00
32083;BME280;18597;48.328;7.932;2023-04-07T01:17:33;99463.06;;;6.24;100.00
32083;BME280;18597;48.328;7.932;2023-04-07T01:20:04;99459.44;;;6.25;100.00
32083;BME280;18597;48.328;7.932;2023-04-07T01:23:00;99466.63;;;6.49;100.00
32083;BME280;18597;48.328;7.932;2023-04-07T01:26:02;99459.84;;;6.45;100.00
32083;BME280;18597;48.328;7.932;2023-04-07T01:29:47;99450.06;;;6.58;100.00
32083;BME280;18597;48.328;7.932;2023-04-07T01:32:09;99457.56;;;6.27;100.00
32083;BME280;18597;48.328;7.932;2023-04-07T01:34:37;99456.47;;;6.17;100.00
32083;BME280;18597;48.328;7.932;2023-04-07T01:37:06;99466.44;;;6.26;100.00
32083;BME280;18597;48.328;7.932;2023-04-07T01:39:33;99475.69;;;6.21;100.00
32083;BME280;18597;48.328;7.932;2023-04-07T01:42:03;99472.63;;;6.14;100.00
32083;BME280;18597;48.328;7.932;2023-04-07T01:44:31;99479.41;;;6.18;100.00
32083;BME280;18597;48.328;7.932;2023-04-07T01:46:59;99482.16;;;6.29;100.00
32083;BME280;18597;48.328;7.932;2023-04-07T01:49:29;99463.47;;;6.44;100.00
32083;BME280;18597;48.328;7.932;2023-04-07T01:51:56;99466.59;;;6.61;100.00
32083;BME280;18597;48.328;7.932;2023-04-07T01:54:48;99461.81;;;6.66;100.00
32083;BME280;18597;48.328;7.932;2023-04-07T01:57:14;99464.03;;;6.73;100.00
32083;BME280;18597;48.328;7.932;2023-04-07T01:59:42;99459.09;;;6.79;100.00
32083;BME280;18597;48.328;7.932;2023-04-07T02:02:08;99455.50;;;6.80;100.00
32083;BME280;18597;48.328;7.932;2023-04-07T02:05:01;99447.88;;;6.76;100.00
32083;BME280;18597;48.328;7.932;2023-04-07T02:07:57;99443.56;;;6.86;100.00
32083;BME280;18597;48.328;7.932;2023-04-07T02:10:26;99440.50;;;6.79;100.00
32083;BME280;18597;48.328;7.932;2023-04-07T02:12:55;99442.31;;;6.79;100.00
32083;BME280;18597;48.328;7.932;2023-04-07T02:15:47;99440.88;;;6.75;100.00
32083;BME280;18597;48.328;7.932;2023-04-07T02:18:19;99426.09;;;6.47;100.00
32083;BME280;18597;48.328;7.932;2023-04-07T02:21:10;99422.28;;;6.38;100.00
32083;BME280;18597;48.328;7.932;2023-04-07T02:23:36;99408.91;;;6.27;100.00
32083;BME280;18597;48.328;7.932;2023-04-07T02:26:32;99406.09;;;6.04;100.00
32083;BME280;18597;48.328;7.932;2023-04-07T02:28:58;99406.22;;;6.03;100.00
32083;BME280;18597;48.328;7.932;2023-04-07T02:31:24;99404.75;;;5.99;100.00
32083;BME280;18597;48.328;7.932;2023-04-07T02:33:52;99412.91;;;5.96;100.00
32083;BME280;18597;48.328;7.932;2023-04-07T02:36:18;99401.13;;;6.00;100.00
32083;BME280;18597;48.328;7.932;2023-04-07T02:38:44;99408.13;;;6.01;100.00
32083;BME280;18597;48.328;7.932;2023-04-07T02:41:14;99395.59;;;5.90;100.00
32083;BME280;18597;48.328;7.932;2023-04-07T02:43:40;99395.91;;;5.85;100.00
32083;BME280;18597;48.328;7.932;2023-04-07T02:46:06;99398.03;;;5.68;100.00
32083;BME280;18597;48.328;7.932;2023-04-07T02:48:57;99395.16;;;5.58;100.00
32083;BME280;18597;48.328;7.932;2023-04-07T02:51:26;99387.22;;;5.58;100.00
32083;BME280;18597;48.328;7.932;2023-04-07T02:53:52;99375.88;;;5.56;100.00
32083;BME280;18597;48.328;7.932;2023-04-07T02:56:18;99379.72;;;5.52;100.00
32083;BME280;18597;48.328;7.932;2023-04-07T02:58:44;99384.56;;;5.45;100.00
32083;BME280;18597;48.328;7.932;2023-04-07T03:01:09;99381.59;;;5.37;100.00
32083;BME280;18597;48.328;7.932;2023-04-07T03:03:35;99382.00;;;5.31;100.00
32083;BME280;18597;48.328;7.932;2023-04-07T03:06:01;99380.53;;;5.40;100.00
32083;BME280;18597;48.328;7.932;2023-04-07T03:08:27;99380.94;;;5.34;100.00
32083;BME280;18597;48.328;7.932;2023-04-07T03:10:54;99388.25;;;5.17;100.00
32083;BME280;18597;48.328;7.932;2023-04-07T03:13:20;99389.59;;;5.10;100.00
32083;BME280;18597;48.328;7.932;2023-04-07T03:15:46;99386.97;;;5.36;100.00
32083;BME280;18597;48.328;7.932;2023-04-07T03:18:12;99396.72;;;5.35;100.00
32083;BME280;18597;48.328;7.932;2023-04-07T03:20:38;99394.31;;;5.32;100.00
32083;BME280;18597;48.328;7.932;2023-04-07T03:23:07;99394.31;;;5.32;100.00
32083;BME280;18597;48.328;7.932;2023-04-07T03:25:32;99394.19;;;5.34;100.00
32083;BME280;18597;48.328;7.932;2023-04-07T03:27:58;99392.28;;;5.36;100.00
32083;BME280;18597;48.328;7.932;2023-04-07T03:30:24;99397.03;;;5.18;100.00
32083;BME280;18597;48.328;7.932;2023-04-07T03:32:50;99401.22;;;4.95;100.00
32083;BME280;18597;48.328;7.932;2023-04-07T03:35:16;99383.41;;;4.97;100.00
32083;BME280;18597;48.328;7.932;2023-04-07T03:37:42;99391.75;;;4.91;100.00
32083;BME280;18597;48.328;7.932;2023-04-07T03:40:08;99382.97;;;4.90;100.00
32083;BME280;18597;48.328;7.932;2023-04-07T03:42:34;99391.53;;;4.81;100.00
32083;BME280;18597;48.328;7.932;2023-04-07T03:45:00;99394.63;;;4.88;100.00
32083;BME280;18597;48.328;7.932;2023-04-07T03:47:26;99387.13;;;4.67;100.00
32083;BME280;18597;48.328;7.932;2023-04-07T03:49:52;99384.13;;;4.59;100.00
32083;BME280;18597;48.328;7.932;2023-04-07T03:52:17;99384.03;;;4.61;100.00
32083;BME280;18597;48.328;7.932;2023-04-07T03:54:44;99390.09;;;4.63;100.00
32083;BME280;18597;48.328;7.932;2023-04-07T03:57:09;99382.97;;;4.90;100.00
32083;BME280;18597;48.328;7.932;2023-04-07T03:59:35;99378.78;;;5.13;100.00
32083;BME280;18597;48.328;7.932;2023-04-07T04:02:17;99380.84;;;5.22;100.00
32083;BME280;18597;48.328;7.932;2023-04-07T04:04:44;99381.25;;;5.16;100.00
32083;BME280;18597;48.328;7.932;2023-04-07T04:07:10;99381.06;;;5.32;100.00
32083;BME280;18597;48.328;7.932;2023-04-07T04:09:37;99379.56;;;5.41;100.00
32083;BME280;18597;48.328;7.932;2023-04-07T04:12:04;99373.53;;;5.51;100.00
32083;BME280;18597;48.328;7.932;2023-04-07T04:14:30;99366.13;;;5.56;100.00
32083;BME280;18597;48.328;7.932;2023-04-07T04:16:56;99367.81;;;5.57;100.00
32083;BME280;18597;48.328;7.932;2023-04-07T04:19:22;99370.25;;;5.73;100.00
32083;BME280;18597;48.328;7.932;2023-04-07T04:21:48;99369.72;;;5.55;100.00
32083;BME280;18597;48.328;7.932;2023-04-07T04:24:14;99372.28;;;5.70;100.00
32083;BME280;18597;48.328;7.932;2023-04-07T04:26:40;99368.25;;;5.64;100.00
32083;BME280;18597;48.328;7.932;2023-04-07T04:29:31;99362.75;;;5.54;100.00
32083;BME280;18597;48.328;7.932;2023-04-07T04:31:56;99359.13;;;5.55;100.00
32083;BME280;18597;48.328;7.932;2023-04-07T04:34:22;99360.19;;;5.66;100.00
32083;BME280;18597;48.328;7.932;2023-04-07T04:36:48;99364.97;;;5.61;100.00
32083;BME280;18597;48.328;7.932;2023-04-07T04:39:15;99359.78;;;5.46;100.00
32083;BME280;18597;48.328;7.932;2023-04-07T04:41:41;99360.41;;;5.50;100.00
32083;BME280;18597;48.328;7.932;2023-04-07T04:44:32;99365.28;;;5.56;100.00
32083;BME280;18597;48.328;7.932;2023-04-07T04:46:58;99356.91;;;5.62;100.00
32083;BME280;18597;48.328;7.932;2023-04-07T04:49:24;99357.66;;;5.64;100.00
32083;BME280;18597;48.328;7.932;2023-04-07T04:51:50;99353.06;;;5.66;100.00
32083;BME280;18597;48.328;7.932;2023-04-07T04:54:18;99350.88;;;5.47;100.00
32083;BME280;18597;48.328;7.932;2023-04-07T04:56:44;99356.91;;;5.49;100.00
32083;BME280;18597;48.328;7.932;2023-04-07T04:59:13;99355.31;;;5.47;100.00
32083;BME280;18597;48.328;7.932;2023-04-07T05:01:40;99358.69;;;5.49;100.00
32083;BME280;18597;48.328;7.932;2023-04-07T05:04:06;99353.09;;;5.53;100.00
32083;BME280;18597;48.328;7.932;2023-04-07T05:06:35;99350.53;;;5.65;100.00
32083;BME280;18597;48.328;7.932;2023-04-07T05:09:01;99354.69;;;5.56;100.00
32083;BME280;18597;48.328;7.932;2023-04-07T05:11:27;99350.00;;;5.72;100.00
32083;BME280;18597;48.328;7.932;2023-04-07T05:13:54;99353.50;;;5.98;100.00
32083;BME280;18597;48.328;7.932;2023-04-07T05:16:46;99360.22;;;5.91;100.00
32083;BME280;18597;48.328;7.932;2023-04-07T05:19:14;99354.13;;;6.02;100.00
32083;BME280;18597;48.328;7.932;2023-04-07T05:21:40;99355.09;;;6.01;100.00
32083;BME280;18597;48.328;7.932;2023-04-07T05:24:06;99352.97;;;5.93;100.00
32083;BME280;18597;48.328;7.932;2023-04-07T05:26:32;99350.22;;;5.95;100.00
32083;BME280;18597;48.328;7.932;2023-04-07T05:28:59;99351.06;;;5.95;100.00
32083;BME280;18597;48.328;7.932;2023-04-07T05:31:50;99343.47;;;5.91;100.00
32083;BME280;18597;48.328;7.932;2023-04-07T05:34:16;99352.00;;;5.81;100.00
32083;BME280;18597;48.328;7.932;2023-04-07T05:36:42;99352.34;;;5.90;100.00
32083;BME280;18597;48.328;7.932;2023-04-07T05:39:10;99357.75;;;6.01;100.00
32083;BME280;18597;48.328;7.932;2023-04-07T05:41:36;99351.34;;;6.16;100.00
32083;BME280;18597;48.328;7.932;2023-04-07T05:44:02;99357.38;;;6.18;100.00
32083;BME280;18597;48.328;7.932;2023-04-07T05:46:28;99357.09;;;6.10;100.00
32083;BME280;18597;48.328;7.932;2023-04-07T05:48:54;99359.53;;;6.13;100.00
32083;BME280;18597;48.328;7.932;2023-04-07T05:51:20;99365.63;;;6.26;100.00
32083;BME280;18597;48.328;7.932;2023-04-07T05:53:46;99366.31;;;6.41;100.00
32083;BME280;18597;48.328;7.932;2023-04-07T05:56:12;99366.41;;;6.52;100.00
32083;BME280;18597;48.328;7.932;2023-04-07T05:58:38;99361.28;;;6.62;100.00
32083;BME280;18597;48.328;7.932;2023-04-07T06:01:04;99358.28;;;6.66;100.00
32083;BME280;18597;48.328;7.932;2023-04-07T06:03:32;99361.44;;;6.72;100.00
32083;BME280;18597;48.328;7.932;2023-04-07T06:05:58;99356.41;;;6.80;100.00
32083;BME280;18597;48.328;7.932;2023-04-07T06:08:23;99361.44;;;6.72;100.00
32083;BME280;18597;48.328;7.932;2023-04-07T06:11:01;99359.94;;;6.80;100.00
32083;BME280;18597;48.328;7.932;2023-04-07T06:13:52;99359.69;;;6.83;100.00
32083;BME280;18597;48.328;7.932;2023-04-07T06:16:18;99362.00;;;6.88;100.00
32083;BME280;18597;48.328;7.932;2023-04-07T06:18:44;99364.03;;;6.84;100.00
32083;BME280;18597;48.328;7.932;2023-04-07T06:21:10;99364.03;;;6.84;100.00
32083;BME280;18597;48.328;7.932;2023-04-07T06:23:40;99356.69;;;6.88;100.00
32083;BME280;18597;48.328;7.932;2023-04-07T06:26:09;99363.34;;;6.93;100.00
32083;BME280;18597;48.328;7.932;2023-04-07T06:28:36;99363.00;;;6.98;100.00
32083;BME280;18597;48.328;7.932;2023-04-07T06:31:02;99367.38;;;7.10;100.00
32083;BME280;18597;48.328;7.932;2023-04-07T06:33:28;99371.28;;;7.17;100.00
32083;BME280;18597;48.328;7.932;2023-04-07T06:35:56;99369.94;;;7.12;100.00
32083;BME280;18597;48.328;7.932;2023-04-07T06:38:23;99375.66;;;7.18;100.00
32083;BME280;18597;48.328;7.932;2023-04-07T06:40:50;99374.81;;;7.18;100.00
32083;BME280;18597;48.328;7.932;2023-04-07T06:43:16;99378.56;;;7.27;100.00
32083;BME280;18597;48.328;7.932;2023-04-07T06:45:42;99379.78;;;7.34;100.00
32083;BME280;18597;48.328;7.932;2023-04-07T06:48:33;99378.38;;;7.52;100.00
32083;BME280;18597;48.328;7.932;2023-04-07T06:50:59;99374.78;;;7.75;100.00
32083;BME280;18597;48.328;7.932;2023-04-07T06:53:25;99385.44;;;8.09;100.00
32083;BME280;18597;48.328;7.932;2023-04-07T06:56:03;99380.47;;;8.27;100.00
32083;BME280;18597;48.328;7.932;2023-04-07T06:58:29;99381.56;;;8.47;100.00
32083;BME280;18597;48.328;7.932;2023-04-07T07:00:56;99381.88;;;8.65;100.00
32083;BME280;18597;48.328;7.932;2023-04-07T07:03:21;99385.19;;;8.89;100.00
32083;BME280;18597;48.328;7.932;2023-04-07T07:05:47;99385.09;;;9.11;99.97
32083;BME280;18597;48.328;7.932;2023-04-07T07:08:13;99385.78;;;9.25;99.30
32083;BME280;18597;48.328;7.932;2023-04-07T07:10:39;99384.63;;;9.38;98.51
32083;BME280;18597;48.328;7.932;2023-04-07T07:13:15;99388.91;;;9.51;93.14
32083;BME280;18597;48.328;7.932;2023-04-07T07:15:42;99391.31;;;9.54;94.36
32083;BME280;18597;48.328;7.932;2023-04-07T07:18:08;99384.06;;;9.65;93.85
32083;BME280;18597;48.328;7.932;2023-04-07T07:20:59;99384.25;;;9.73;91.64
32083;BME280;18597;48.328;7.932;2023-04-07T07:23:27;99388.44;;;9.66;92.06
32083;BME280;18597;48.328;7.932;2023-04-07T07:25:53;99389.59;;;9.73;92.37
32083;BME280;18597;48.328;7.932;2023-04-07T07:28:19;99390.56;;;9.93;92.23
32083;BME280;18597;48.328;7.932;2023-04-07T07:30:46;99392.22;;;10.15;89.61
32083;BME280;18597;48.328;7.932;2023-04-07T07:57:56;99404.56;;;10.47;84.28
32083;BME280;18597;48.328;7.932;2023-04-07T08:00:22;99402.44;;;10.91;80.92
32083;BME280;18597;48.328;7.932;2023-04-07T08:02:48;99403.69;;;11.25;78.58
32083;BME280;18597;48.328;7.932;2023-04-07T08:05:14;99411.56;;;11.56;76.15
32083;BME280;18597;48.328;7.932;2023-04-07T08:07:40;99410.00;;;11.82;73.51
32083;BME280;18597;48.328;7.932;2023-04-07T08:10:08;99413.59;;;12.10;70.62
32083;BME280;18597;48.328;7.932;2023-04-07T08:12:34;99419.22;;;12.44;67.59
32083;BME280;18597;48.328;7.932;2023-04-07T08:15:00;99417.91;;;12.76;65.24
32083;BME280;18597;48.328;7.932;2023-04-07T08:17:26;99422.81;;;13.08;63.66
32083;BME280;18597;48.328;7.932;2023-04-07T08:19:51;99421.31;;;13.41;63.07
32083;BME280;18597;48.328;7.932;2023-04-07T08:22:17;99421.16;;;13.60;61.62
32083;BME280;18597;48.328;7.932;2023-04-07T08:24:45;99419.66;;;13.66;62.43
32083;BME280;18597;48.328;7.932;2023-04-07T08:27:12;99421.25;;;13.77;61.68
32083;BME280;18597;48.328;7.932;2023-04-07T08:29:38;99420.31;;;13.86;59.30
32083;BME280;18597;48.328;7.932;2023-04-07T08:32:04;99421.94;;;14.05;57.96
32083;BME280;18597;48.328;7.932;2023-04-07T08:34:30;99421.56;;;14.26;55.89
32083;BME280;18597;48.328;7.932;2023-04-07T08:36:55;99426.81;;;14.35;53.17
32083;BME280;18597;48.328;7.932;2023-04-07T08:39:21;99424.44;;;14.58;52.95
32083;BME280;18597;48.328;7.932;2023-04-07T08:41:50;99427.41;;;14.81;51.55
32083;BME280;18597;48.328;7.932;2023-04-07T08:44:16;99431.97;;;14.97;50.68
32083;BME280;18597;48.328;7.932;2023-04-07T08:46:42;99423.94;;;15.21;50.35
32083;BME280;18597;48.328;7.932;2023-04-07T08:49:11;99434.06;;;15.44;49.46
32083;BME280;18597;48.328;7.932;2023-04-07T08:51:45;99428.38;;;15.71;49.19
32083;BME280;18597;48.328;7.932;2023-04-07T08:54:16;99435.63;;;15.87;48.01
32083;BME280;18597;48.328;7.932;2023-04-07T08:56:44;99435.63;;;15.95;48.43
32083;BME280;18597;48.328;7.932;2023-04-07T08:59:13;99432.09;;;15.95;47.86
32083;BME280;18597;48.328;7.932;2023-04-07T09:01:40;99427.53;;;15.79;48.02
32083;BME280;18597;48.328;7.932;2023-04-07T09:04:08;99445.03;;;15.59;49.16
32083;BME280;18597;48.328;7.932;2023-04-07T09:06:35;99435.22;;;15.33;50.01
32083;BME280;18597;48.328;7.932;2023-04-07T09:09:02;99442.22;;;14.93;50.83
32083;BME280;18597;48.328;7.932;2023-04-07T09:11:29;99439.75;;;14.66;52.10
32083;BME280;18597;48.328;7.932;2023-04-07T09:13:55;99447.16;;;14.38;53.32
32083;BME280;18597;48.328;7.932;2023-04-07T09:16:22;99454.34;;;14.29;54.66
32083;BME280;18597;48.328;7.932;2023-04-07T09:18:49;99448.81;;;14.31;54.85
32083;BME280;18597;48.328;7.932;2023-04-07T09:21:15;99449.09;;;14.46;54.63
32083;BME280;18597;48.328;7.932;2023-04-07T09:23:42;99452.84;;;14.61;54.59
32083;BME280;18597;48.328;7.932;2023-04-07T09:26:25;99454.81;;;14.93;53.33
32083;BME280;18597;48.328;7.932;2023-04-07T09:28:56;99450.31;;;15.02;52.91
32083;BME280;18597;48.328;7.932;2023-04-07T09:31:42;99446.41;;;14.96;53.43
32083;BME280;18597;48.328;7.932;2023-04-07T09:37:01;99454.09;;;14.75;53.69
32083;BME280;18597;48.328;7.932;2023-04-07T09:39:27;99460.41;;;14.31;54.49
32083;BME280;18597;48.328;7.932;2023-04-07T09:41:54;99460.53;;;13.78;56.58
32083;BME280;18597;48.328;7.932;2023-04-07T09:44:21;99466.59;;;13.44;58.04
32083;BME280;18597;48.328;7.932;2023-04-07T09:46:56;99467.16;;;12.75;61.37
32083;BME280;18597;48.328;7.932;2023-04-07T09:49:24;99469.97;;;12.56;63.04
32083;BME280;18597;48.328;7.932;2023-04-07T09:51:53;99466.50;;;12.36;64.43
32083;BME280;18597;48.328;7.932;2023-04-07T09:54:40;99462.19;;;12.15;63.66
32083;BME280;18597;48.328;7.932;2023-04-07T09:57:10;99458.50;;;12.26;64.43
32083;BME280;18597;48.328;7.932;2023-04-07T09:59:39;99465.47;;;12.46;63.54
32083;BME280;18597;48.328;7.932;2023-04-07T10:02:10;99469.31;;;12.71;63.26
32083;BME280;18597;48.328;7.932;2023-04-07T10:04:37;99469.16;;;13.00;62.72
32083;BME280;18597;48.328;7.932;2023-04-07T10:07:05;99467.16;;;13.30;61.47
32083;BME280;18597;48.328;7.932;2023-04-07T10:09:31;99472.53;;;13.48;60.93
32083;BME280;18597;48.328;7.932;2023-04-07T10:11:58;99472.50;;;13.66;60.02
32083;BME280;18597;48.328;7.932;2023-04-07T10:14:30;99463.06;;;13.79;60.64
32083;BME280;18597;48.328;7.932;2023-04-07T10:16:58;99472.50;;;13.66;60.19
32083;BME280;18597;48.328;7.932;2023-04-07T10:19:25;99469.75;;;13.57;61.07
32083;BME280;18597;48.328;7.932;2023-04-07T10:21:54;99475.50;;;13.63;61.88
32083;BME280;18597;48.328;7.932;2023-04-07T10:25:10;99472.03;;;13.52;62.63
32083;BME280;18597;48.328;7.932;2023-04-07T10:27:36;99484.22;;;13.29;63.79
32083;BME280;18597;48.328;7.932;2023-04-07T10:30:06;99485.03;;;13.12;65.60
32083;BME280;18597;48.328;7.932;2023-04-07T10:32:54;99480.47;;;12.94;66.49
32083;BME280;18597;48.328;7.932;2023-04-07T10:35:21;99491.13;;;12.76;67.75
32083;BME280;18597;48.328;7.932;2023-04-07T10:40:43;99493.63;;;12.13;73.73
32083;BME280;18597;48.328;7.932;2023-04-07T10:43:10;99493.09;;;12.00;75.42
32083;BME280;18597;48.328;7.932;2023-04-07T10:45:52;99489.75;;;11.88;76.55
32083;BME280;18597;48.328;7.932;2023-04-07T10:48:20;99488.72;;;11.70;78.59
32083;BME280;18597;48.328;7.932;2023-04-07T10:51:11;99485.50;;;11.57;80.69
32083;BME280;18597;48.328;7.932;2023-04-07T10:54:20;99487.88;;;11.60;83.19
32083;BME280;18597;48.328;7.932;2023-04-07T10:59:41;99497.47;;;11.43;87.03
32083;BME280;18597;48.328;7.932;2023-04-07T11:04:46;99498.13;;;11.26;87.54
32083;BME280;18597;48.328;7.932;2023-04-07T11:07:14;99495.44;;;11.16;87.95
32083;BME280;18597;48.328;7.932;2023-04-07T11:09:41;99493.75;;;11.05;88.66
32083;BME280;18597;48.328;7.932;2023-04-07T11:12:07;99503.91;;;11.11;88.18
32083;BME280;18597;48.328;7.932;2023-04-07T11:14:33;99500.66;;;11.18;86.34
32083;BME280;18597;48.328;7.932;2023-04-07T11:17:02;99507.03;;;11.26;85.92
32083;BME280;18597;48.328;7.932;2023-04-07T11:19:29;99505.34;;;11.45;84.76
32083;BME280;18597;48.328;7.932;2023-04-07T11:22:16;99500.97;;;11.63;83.55
32083;BME280;18597;48.328;7.932;2023-04-07T11:24:44;99510.56;;;11.75;83.53
32083;BME280;18597;48.328;7.932;2023-04-07T11:27:12;99502.97;;;11.90;82.67
32083;BME280;18597;48.328;7.932;2023-04-07T11:29:39;99508.03;;;12.03;81.78
32083;BME280;18597;48.328;7.932;2023-04-07T11:32:05;99510.69;;;12.12;79.42
32083;BME280;18597;48.328;7.932;2023-04-07T11:34:33;99513.19;;;12.33;79.30
32083;BME280;18597;48.328;7.932;2023-04-07T11:37:20;99510.28;;;12.54;78.05
32083;BME280;18597;48.328;7.932;2023-04-07T11:39:56;99513.19;;;12.70;78.67
32083;BME280;18597;48.328;7.932;2023-04-07T11:42:38;99519.88;;;12.84;80.58
32083;BME280;18597;48.328;7.932;2023-04-07T11:45:21;99514.03;;;12.71;82.90
32083;BME280;18597;48.328;7.932;2023-04-07T11:47:47;99509.06;;;12.48;86.87
32083;BME280;18597;48.328;7.932;2023-04-07T11:50:15;99516.44;;;12.27;91.07
32083;BME280;18597;48.328;7.932;2023-04-07T11:52:47;99520.41;;;12.13;94.04
32083;BME280;18597;48.328;7.932;2023-04-07T11:55:20;99522.28;;;12.03;97.07
32083;BME280;18597;48.328;7.932;2023-04-07T11:57:47;99523.25;;;11.73;98.79
32083;BME280;18597;48.328;7.932;2023-04-07T12:00:14;99522.38;;;11.53;100.00
32083;BME280;18597;48.328;7.932;2023-04-07T12:02:40;99525.91;;;11.73;100.00
32083;BME280;18597;48.328;7.932;2023-04-07T12:05:07;99526.09;;;11.81;100.00
32083;BME280;18597;48.328;7.932;2023-04-07T12:07:36;99515.66;;;11.88;100.00
32083;BME280;18597;48.328;7.932;2023-04-07T12:10:23;99520.41;;;12.13;100.00
32083;BME280;18597;48.328;7.932;2023-04-07T12:12:50;99518.69;;;12.22;100.00
32083;BME280;18597;48.328;7.932;2023-04-07T12:15:16;99520.22;;;12.34;99.29
32083;BME280;18597;48.328;7.932;2023-04-07T12:17:45;99525.84;;;12.31;100.00
32083;BME280;18597;48.328;7.932;2023-04-07T12:20:12;99522.72;;;12.45;100.00
32083;BME280;18597;48.328;7.932;2023-04-07T12:22:39;99527.09;;;12.46;95.33
32083;BME280;18597;48.328;7.932;2023-04-07T12:25:05;99522.41;;;12.58;95.06
32083;BME280;18597;48.328;7.932;2023-04-07T12:27:31;99526.00;;;12.76;92.13
32083;BME280;18597;48.328;7.932;2023-04-07T12:29:57;99537.31;;;12.98;91.34
32083;BME280;18597;48.328;7.932;2023-04-07T12:32:23;99534.28;;;13.20;89.46
32083;BME280;18597;48.328;7.932;2023-04-07T12:34:50;99541.28;;;13.49;85.17
32083;BME280;18597;48.328;7.932;2023-04-07T12:37:16;99535.94;;;13.67;85.36
32083;BME280;18597;48.328;7.932;2023-04-07T12:39:42;99532.56;;;13.47;82.86
32083;BME280;18597;48.328;7.932;2023-04-07T12:42:07;99540.47;;;13.21;85.11
32083;BME280;18597;48.328;7.932;2023-04-07T12:44:37;99534.28;;;12.83;88.21
32083;BME280;18597;48.328;7.932;2023-04-07T12:47:03;99534.59;;;12.80;87.58
32083;BME280;18597;48.328;7.932;2023-04-07T12:49:29;99531.47;;;12.85;86.25
32083;BME280;18597;48.328;7.932;2023-04-07T12:51:55;99533.53;;;13.00;88.66
32083;BME280;18597;48.328;7.932;2023-04-07T12:54:22;99532.59;;;13.37;85.90
32083;BME280;18597;48.328;7.932;2023-04-07T12:56:48;99524.50;;;13.82;81.02
32083;BME280;18597;48.328;7.932;2023-04-07T12:59:14;99526.31;;;14.43;77.61
32083;BME280;18597;48.328;7.932;2023-04-07T13:01:40;99530.16;;;15.01;71.12
32083;BME280;18597;48.328;7.932;2023-04-07T13:04:07;99530.69;;;15.63;67.48
32083;BME280;18597;48.328;7.932;2023-04-07T13:06:33;99519.63;;;16.15;63.18
32083;BME280;18597;48.328;7.932;2023-04-07T13:08:59;99517.41;;;16.43;59.74
32083;BME280;18597;48.328;7.932;2023-04-07T13:11:25;99513.97;;;16.65;58.30
32083;BME280;18597;48.328;7.932;2023-04-07T13:13:52;99512.13;;;16.74;57.27
32083;BME280;18597;48.328;7.932;2023-04-07T13:16:18;99520.38;;;16.81;55.84
32083;BME280;18597;48.328;7.932;2023-04-07T13:18:44;99516.28;;;16.93;55.98
32083;BME280;18597;48.328;7.932;2023-04-07T13:21:09;99516.16;;;16.78;54.86
32083;BME280;18597;48.328;7.932;2023-04-07T13:23:35;99504.38;;;16.63;54.89
32083;BME280;18597;48.328;7.932;2023-04-07T13:26:01;99514.91;;;16.33;55.12
32083;BME280;18597;48.328;7.932;2023-04-07T13:28:27;99509.47;;;16.42;55.75
32083;BME280;18597;48.328;7.932;2023-04-07T13:30:53;99504.09;;;16.42;56.22
32083;BME280;18597;48.328;7.932;2023-04-07T13:33:19;99510.66;;;16.31;55.62
32083;BME280;18597;48.328;7.932;2023-04-07T13:35:45;99509.34;;;16.19;57.73
32083;BME280;18597;48.328;7.932;2023-04-07T13:38:11;99504.63;;;16.29;55.72
32083;BME280;18597;48.328;7.932;2023-04-07T13:40:37;99508.16;;;16.29;56.35
32083;BME280;18597;48.328;7.932;2023-04-07T13:43:03;99509.81;;;16.30;55.79
32083;BME280;18597;48.328;7.932;2023-04-07T13:45:29;99501.59;;;16.16;57.14
32083;BME280;18597;48.328;7.932;2023-04-07T13:47:54;99514.91;;;15.93;57.33
32083;BME280;18597;48.328;7.932;2023-04-07T13:50:20;99511.53;;;15.91;57.33
32083;BME280;18597;48.328;7.932;2023-04-07T13:52:46;99516.94;;;15.91;56.59